Latest Coastal Weather Observations for Browse Island

IDD60701

Issued at 3:11 am CST Sunday 26 June 2016 (issued every 10 minutes, with the page automatically refreshed every 10 minutes)

About coastal observations | Map of coastal stations | Coastal observations for NT | Marine services | Other Formats
Station Details ID: 200784 Name: BROWSE ISLAND Lat: -14.11 Lon: 123.55 Height: 3.7 m
Data from the previous 72 hours. | See also: Recent months at Browse Island
Date/Time
CST
Temp
°C
Wind Pressure Rain since
9am
mm
Weather Cloud Vis
km
Sea
Height
m
Swell
Dir  Spd
kts
Gust
kts
hPa Trend Height
m
Period
s
Dir
26/03:00am 27.4 SSW 13 16 1012.4 - - - - - - - - -
26/02:30am 27.7 SSW 13 15 1012.5 - - - - - - - - -
26/02:00am 27.8 SSW 11 14 1012.6 - - - - - - - - -
26/01:30am 27.7 SSW 11 12 1012.7 - - - - - - - - -
26/01:00am 27.7 SSW 9 12 1012.7 - - - - - - - - -
26/12:30am 27.7 SSW 8 9 1012.9 - - - - - - - - -
26/12:00am 27.7 S 8 9 1012.9 - - - - - - - - -
 
Date/Time
CST
Temp
°C
Wind Pressure Rain since
9am
mm
Weather Cloud Vis
km
Sea
Height
m
Swell
Dir  Spd
kts
Gust
kts
hPa Trend Height
m
Period
s
Dir
25/11:30pm 27.8 SSW 8 10 1013.2 - - - - - - - - -
25/11:00pm 27.7 S 9 12 1013.3 - - - - - - - - -
25/10:30pm 27.8 SSW 9 11 1013.3 - - - - - - - - -
25/10:00pm 27.9 S 9 10 1013.2 - - - - - - - - -
25/09:30pm 27.8 S 8 9 1013.3 - - - - - - - - -
25/09:00pm 28.0 SSW 7 9 1013.1 - - - - - - - - -
25/08:30pm 27.9 SSW 8 11 1013.0 - - - - - - - - -
25/08:00pm 27.9 S 7 9 1012.6 - - - - - - - - -
25/07:30pm 28.0 S 7 8 1012.3 - - - - - - - - -
25/07:00pm 28.1 S 7 8 1012.0 - - - - - - - - -
25/06:30pm 28.1 SSW 7 8 1011.8 - - - - - - - - -
25/06:00pm 28.2 S 6 8 1011.5 - - - - - - - - -
25/05:30pm 28.5 SSE 5 7 1011.1 - - - - - - - - -
25/05:00pm 28.5 S 5 6 1011.0 - - - - - - - - -
25/04:30pm 28.5 SSW 5 7 1010.8 - - - - - - - - -
25/04:00pm 28.6 SSW 5 7 1010.8 - - - - - - - - -
25/03:30pm 28.6 S 5 6 1010.9 - - - - - - - - -
25/03:00pm 29.0 SSE 4 6 1011.4 - - - - - - - - -
25/02:30pm 29.0 S 4 5 1011.8 - - - - - - - - -
25/02:00pm 29.2 SSW 4 5 1012.0 - - - - - - - - -
25/01:30pm 29.1 S 4 6 1012.3 - - - - - - - - -
25/01:00pm 28.9 SSE 5 6 1012.6 - - - - - - - - -
25/12:30pm 30.2 ESE 4 7 1012.9 - - - - - - - - -
25/12:00pm 29.0 SE 5 7 1013.1 - - - - - - - - -
25/11:30am 29.1 SE 5 6 1013.2 - - - - - - - - -
25/11:00am 28.8 ESE 5 7 1013.4 - - - - - - - - -
25/10:30am 28.9 ESE 5 6 1013.5 - - - - - - - - -
25/10:00am 28.5 SE 5 6 1013.4 - - - - - - - - -
25/09:30am 28.3 ESE 4 6 1013.3 - - - - - - - - -
25/09:00am 28.0 SE 6 7 1013.0 - - - - - - - - -
25/08:30am 27.8 ESE 5 6 1012.7 - - - - - - - - -
25/08:00am 27.6 SE 6 7 1012.5 - - - - - - - - -
25/07:30am 27.5 ESE 5 7 1012.2 - - - - - - - - -
25/07:00am 27.7 ESE 6 7 1011.9 - - - - - - - - -
25/06:30am 27.6 SE 6 7 1011.8 - - - - - - - - -
25/06:00am 27.5 SE 6 7 1011.7 - - - - - - - - -
25/05:30am 27.6 SE 6 7 1011.5 - - - - - - - - -
25/05:00am 27.5 SE 6 7 1011.3 - - - - - - - - -
25/04:30am 27.6 S 6 7 1011.3 - - - - - - - - -
25/04:00am 27.6 SSE 5 6 1011.2 - - - - - - - - -
25/03:30am 27.6 SSE 5 6 1011.4 - - - - - - - - -
25/03:00am 27.6 SSE 1 4 1011.6 - - - - - - - - -
25/02:30am 27.7 SE 4 5 1011.7 - - - - - - - - -
25/02:00am 27.7 SSE 5 7 1011.7 - - - - - - - - -
25/01:30am 27.4 SE 6 8 1011.9 - - - - - - - - -
25/01:00am 27.5 SSE 7 8 1012.0 - - - - - - - - -
25/12:30am 27.7 SSE 8 9 1012.2 - - - - - - - - -
25/12:00am 27.7 SSE 8 9 1012.2 - - - - - - - - -
 
Date/Time
CST
Temp
°C
Wind Pressure Rain since
9am
mm
Weather Cloud Vis
km
Sea
Height
m
Swell
Dir  Spd
kts
Gust
kts
hPa Trend Height
m
Period
s
Dir
24/11:30pm 27.5 SSE 7 9 1012.4 - - - - - - - - -
24/11:00pm 27.5 SE 7 9 1012.5 - - - - - - - - -
24/10:30pm 27.6 SE 8 10 1012.4 - - - - - - - - -
24/10:00pm 27.2 SE 8 9 1012.4 - - - - - - - - -
24/09:30pm 27.5 SE 8 10 1012.1 - - - - - - - - -
24/09:00pm 27.5 SE 9 10 1012.0 - - - - - - - - -
24/08:30pm 27.7 SE 9 11 1011.8 - - - - - - - - -
24/08:00pm 27.4 SSE 10 11 1011.5 - - - - - - - - -
24/07:30pm 27.6 SSE 10 12 1011.2 - - - - - - - - -
24/07:00pm 27.6 SSE 10 13 1011.1 - - - - - - - - -
24/06:30pm 27.7 SSE 9 12 1011.0 - - - - - - - - -
24/06:00pm 27.6 S 10 13 1010.6 - - - - - - - - -
24/05:30pm 27.7 S 11 13 1010.3 - - - - - - - - -
24/05:00pm 27.8 S 11 13 1010.3 - - - - - - - - -
24/04:30pm 27.7 SSE 11 14 1010.2 - - - - - - - - -
24/04:00pm 27.9 SSE 11 13 1010.2 - - - - - - - - -
24/03:30pm 28.0 SSE 10 13 1010.4 - - - - - - - - -
24/03:00pm 27.9 SSE 10 12 1010.7 - - - - - - - - -
24/02:30pm 27.9 SSE 11 13 1010.9 - - - - - - - - -
24/02:00pm 28.0 SSE 10 13 1011.3 - - - - - - - - -
24/01:30pm 28.0 SSE 9 12 1011.9 - - - - - - - - -
24/01:00pm 28.1 SSE 10 12 1012.3 - - - - - - - - -
24/12:30pm 28.0 SE 10 12 1012.7 - - - - - - - - -
24/12:00pm 27.7 SSE 10 12 1013.0 - - - - - - - - -
24/11:30am 27.7 SSE 10 11 1013.2 - - - - - - - - -
24/11:00am 27.6 SSE 9 11 1013.5 - - - - - - - - -
24/10:30am 27.7 S 9 11 1013.5 - - - - - - - - -
24/10:00am 27.5 SSE 9 11 1013.5 - - - - - - - - -
24/09:30am 27.4 SSE 9 11 1013.3 - - - - - - - - -
24/09:00am 27.4 S 10 13 1012.9 - - - - - - - - -
24/08:30am 27.4 S 11 14 1012.5 - - - - - - - - -
24/08:00am 27.6 S 11 14 1012.0 - - - - - - - - -
24/07:30am 27.5 S 10 13 1011.9 - - - - - - - - -
24/07:00am 27.4 S 10 12 1011.8 - - - - - - - - -
24/06:30am 27.4 S 10 12 1011.7 - - - - - - - - -
24/06:00am 27.4 S 11 14 1011.5 - - - - - - - - -
24/05:30am 27.4 S 12 14 1011.5 - - - - - - - - -
24/05:00am 27.4 S 11 14 1011.4 - - - - - - - - -
24/04:30am 27.5 SSW 11 13 1011.5 - - - - - - - - -
24/04:00am 27.5 SSW 11 13 1011.5 - - - - - - - - -
24/03:30am 27.4 SSW 11 13 1011.6 - - - - - - - - -
24/03:00am 27.3 SSW 10 11 1011.8 - - - - - - - - -
24/02:30am 27.4 SSW 10 12 1012.0 - - - - - - - - -
24/02:00am 27.2 SSW 9 11 1012.2 - - - - - - - - -
24/01:30am 27.0 SSW 11 13 1012.2 - - - - - - - - -
24/01:00am 27.1 SSW 11 13 1012.3 - - - - - - - - -
24/12:30am 27.1 SSW 11 13 1012.3 - - - - - - - - -
24/12:00am 27.1 SSW 11 13 1012.3 - - - - - - - - -
 
Date/Time
CST
Temp
°C
Wind Pressure Rain since
9am
mm
Weather Cloud Vis
km
Sea
Height
m
Swell
Dir  Spd
kts
Gust
kts
hPa Trend Height
m
Period
s
Dir
23/11:30pm 27.3 SSW 9 13 1012.4 - - - - - - - - -
23/11:00pm 27.2 SSW 9 11 1012.4 - - - - - - - - -
23/10:30pm 27.1 SSW 9 11 1012.3 - - - - - - - - -
23/10:00pm 27.1 SSW 10 13 1012.3 - - - - - - - - -
23/09:30pm 27.2 S 9 11 1012.2 - - - - - - - - -
23/09:00pm 27.4 S 10 13 1012.1 - - - - - - - - -
23/08:30pm 27.6 SSW 9 11 1011.9 - - - - - - - - -
23/08:00pm 27.7 S 6 7 1011.7 - - - - - - - - -
23/07:30pm 27.7 SSW 7 8 1011.4 - - - - - - - - -
23/07:00pm 27.8 SSW 8 9 1011.2 - - - - - - - - -
23/06:30pm 27.7 SSW 8 10 1011.0 - - - - - - - - -
23/06:00pm 27.8 S 8 10 1010.8 - - - - - - - - -
23/05:30pm 27.9 S 6 7 1010.7 - - - - - - - - -
23/05:00pm 28.0 SSE 6 8 1010.7 - - - - - - - - -
23/04:30pm 28.8 S 5 7 1010.5 - - - - - - - - -
23/04:00pm 28.1 SSE 5 6 1010.6 - - - - - - - - -
23/03:30pm 28.3 SSE 5 7 1010.6 - - - - - - - - -
23/03:00pm 28.6 S 6 8 1010.6 - - - - - - - - -
23/02:30pm 28.5 SSE 7 9 1010.9 - - - - - - - - -
23/02:00pm 28.8 SSE 7 9 1011.5 - - - - - - - - -
23/01:30pm 28.4 SSE 7 8 1012.0 - - - - - - - - -
23/01:00pm 28.8 SSE 7 9 1012.3 - - - - - - - - -
23/12:30pm 28.7 SE 7 9 1012.9 - - - - - - - - -
23/12:00pm 28.6 SSE 7 9 1013.2 - - - - - - - - -
23/11:30am 28.4 SE 8 11 1013.4 - - - - - - - - -
23/11:00am 28.6 SSE 8 9 1013.5 - - - - - - - - -
23/10:30am 28.0 SSE 8 11 1013.6 - - - - - - - - -
23/10:00am 27.9 SSE 8 11 1013.4 - - - - - - - - -
23/09:30am 27.8 S 8 11 1013.2 - - - - - - - - -
23/09:00am 27.7 S 9 11 1012.9 - - - - - - - - -
23/08:30am 27.6 S 8 9 1012.7 - - - - - - - - -
23/08:00am 27.7 S 9 11 1012.4 - - - - - - - - -
23/07:30am 27.6 S 9 11 1012.3 - - - - - - - - -
23/07:00am 27.7 SSW 9 11 1012.2 - - - - - - - - -
23/06:30am 27.8 SSW 7 9 1012.2 - - - - - - - - -
23/06:00am 27.9 S 6 7 1012.2 - - - - - - - - -
23/05:30am 27.8 SSW 7 10 1011.9 - - - - - - - - -
23/05:00am 27.8 SSW 6 9 1011.8 - - - - - - - - -

Other Formats:

Comma delimited format used in spreadsheet applications
http://www.bom.gov.au/fwo/IDD60701/IDD60701.94103.axf

JavaScript Object Notation format (JSON) in row-major order
http://www.bom.gov.au/fwo/IDD60701/IDD60701.94103.json